الصفحة الرئيسية
صور الأقمار الصناعية توقعات الطقس لمدة 15 يوممناخالتوقعات البحرية إعصار برق مطارأسئلة وأجوبة النشرة الإخبارية حول
طقس : أوروبا أفريقيا أمريكا الشمالية أمريكا الجنوبية آسيا أستراليا-أوقيانوسيا آخرون
لغات جهة اتصال

مدينة همدان, إيران

دائرة عرض: 34-52-05N, خط طول: 048-33-08E, ارتفاع: 1757 m


METAR: OIHH 291451Z 05006KT 9999 SCT040 30/00 Q1017
short-TAF: فقد
long-TAF: عفا عليها الزمن (60061 ساعات)

زمن: 00:50 (20:20 UTC)

مراقبة الطقس الحالي

تاريخ و وقت الإصدار 5 ساعات و 29 دقيقة قبل الساعة 14:51 UTC  
ريح 06 kt من الشمال
درجة الحرارة 30°C
الرطوبة 14%
ضغط 1017 hPa
الرؤية 10 km أو أكثر
غيوم متفرقة على ارتفاع 4000 ft

تغيير وحدة
المعلومات الواردة في هذا الموقع يخضع إخلاء
طقس : أوروبا أفريقيا أمريكا الشمالية أمريكا الجنوبية آسيا أستراليا-أوقيانوسيا آخرون
صور الأقمار الصناعية توقعات الطقس لمدة 15 يوممناخالتوقعات البحرية إعصار برق مطارأسئلة وأجوبة لغات جهة اتصال النشرة الإخبارية حول